createdAt,value
2019-01-04T00:03:01.257Z,102060.70
2019-01-04T00:05:47.708Z,102043.51
2019-01-04T00:08:15.405Z,102037.75
2019-01-04T00:10:43.025Z,102037.75
2019-01-04T00:13:29.531Z,102033.86
2019-01-04T00:15:57.240Z,102037.75
2019-01-04T00:21:11.245Z,102058.41
2019-01-04T00:23:59.947Z,102058.41
2019-01-04T00:26:27.655Z,102059.33
2019-01-04T00:28:55.273Z,102054.96
2019-01-04T00:31:41.799Z,102052.81
2019-01-04T00:34:28.263Z,102050.25
2019-01-04T00:36:55.963Z,102037.09
2019-01-04T00:39:42.455Z,102037.09
2019-01-04T00:42:10.106Z,102036.61
2019-01-04T00:44:40.265Z,102038.83
2019-01-04T00:47:26.751Z,102037.92
2019-01-04T00:49:54.458Z,102049.78
2019-01-04T00:52:22.173Z,102054.61
2019-01-04T00:55:08.602Z,102052.39
2019-01-04T00:57:36.690Z,102052.39
2019-01-04T01:02:42.420Z,102033.56
2019-01-04T01:05:10.139Z,102030.94
2019-01-04T01:07:56.602Z,102035.36
2019-01-04T01:10:24.505Z,102038.01
2019-01-04T01:12:52.123Z,102044.66
2019-01-04T01:15:38.621Z,102053.41
2019-01-04T01:18:06.307Z,102052.16
2019-01-04T01:20:53.045Z,102036.80
2019-01-04T01:23:20.762Z,102020.59
2019-01-04T01:26:07.293Z,102039.50
2019-01-04T01:31:23.335Z,102048.73
2019-01-04T01:34:09.794Z,102048.73
2019-01-04T01:36:56.307Z,102064.53
2019-01-04T01:42:15.548Z,102072.90
2019-01-04T01:45:02.263Z,102053.17
2019-01-04T01:47:32.212Z,102053.17
2019-01-04T01:50:18.991Z,102060.23
2019-01-04T01:52:46.680Z,102060.23
2019-01-04T01:55:14.360Z,102069.88
2019-01-04T01:57:42.050Z,102071.27
2019-01-04T02:00:28.562Z,102081.37
2019-01-04T02:02:56.242Z,102081.37
2019-01-04T02:05:23.883Z,102064.28
2019-01-04T02:08:10.310Z,102064.28
2019-01-04T02:10:56.835Z,102074.32
2019-01-04T02:13:45.855Z,102069.45
2019-01-04T02:16:13.554Z,102069.45
2019-01-04T02:19:00.338Z,102076.43
2019-01-04T02:21:27.986Z,102076.43
2019-01-04T02:23:55.663Z,102075.13
2019-01-04T02:26:23.359Z,102066.41
2019-01-04T02:29:09.827Z,102066.41
2019-01-04T02:31:37.526Z,102067.32
2019-01-04T02:34:24.236Z,102076.94
2019-01-04T02:37:11.075Z,102071.67
2019-01-04T02:39:38.691Z,102071.67
2019-01-04T02:42:25.217Z,102074.32
2019-01-04T02:44:52.850Z,102074.32
2019-01-04T02:47:20.534Z,102063.78
2019-01-04T02:50:07.022Z,102065.99
2019-01-04T02:52:53.659Z,102056.80
2019-01-04T02:55:21.298Z,102056.80
2019-01-04T02:58:07.830Z,102055.95
2019-01-04T03:00:35.571Z,102053.33
2019-01-04T03:03:03.319Z,102052.44
2019-01-04T03:05:49.788Z,102058.13
2019-01-04T03:08:36.303Z,102062.53
2019-01-04T03:11:03.959Z,102062.53
2019-01-04T03:13:50.500Z,102066.50
2019-01-04T03:16:36.998Z,102068.30
2019-01-04T03:19:04.755Z,102068.30
2019-01-04T03:21:51.197Z,102060.39
2019-01-04T03:24:18.918Z,102055.12
2019-01-04T03:26:46.573Z,102055.12
2019-01-04T03:29:33.082Z,102052.41
2019-01-04T03:32:19.585Z,102048.88
2019-01-04T03:35:06.284Z,102043.62
2019-01-04T03:37:33.988Z,102043.62
2019-01-04T03:40:02.046Z,102040.59
2019-01-04T03:42:48.858Z,102039.84
2019-01-04T03:45:16.504Z,102040.27
2019-01-04T03:48:03.291Z,102031.13
2019-01-04T03:50:31.004Z,102031.13
2019-01-04T03:52:58.658Z,102022.87
2019-01-04T03:58:19.252Z,102011.88
2019-01-04T04:00:47.262Z,102009.66
2019-01-04T04:03:33.762Z,102007.00
2019-01-04T04:06:20.204Z,101997.80
2019-01-04T04:09:06.743Z,101997.80
2019-01-04T04:11:34.775Z,102009.59
2019-01-04T04:14:02.579Z,102007.38
2019-01-04T04:16:49.011Z,102011.30
2019-01-04T04:19:35.509Z,102016.55
2019-01-04T04:22:03.632Z,102022.23
2019-01-04T04:24:50.069Z,102022.23
2019-01-04T04:27:17.781Z,102030.06
2019-01-04T04:29:45.489Z,102030.06
2019-01-04T04:32:31.925Z,102019.94
2019-01-04T04:35:18.459Z,102013.34
2019-01-04T04:37:46.078Z,102011.14
2019-01-04T04:40:32.569Z,102010.71
2019-01-04T04:43:19.067Z,102015.09
2019-01-04T04:45:46.692Z,102015.09
2019-01-04T04:48:33.220Z,102012.92
2019-01-04T04:51:00.860Z,102009.41
2019-01-04T04:53:47.349Z,102007.20
2019-01-04T04:56:33.798Z,101996.58
2019-01-04T04:59:01.504Z,101996.58
2019-01-04T05:01:29.481Z,101983.42
2019-01-04T05:04:09.084Z,101992.22
2019-01-04T05:06:26.481Z,101992.22
2019-01-04T05:08:54.133Z,101999.69
2019-01-04T05:11:40.652Z,102004.06
2019-01-04T05:14:27.147Z,102011.52
2019-01-04T05:16:56.561Z,102011.52
2019-01-04T05:19:43.041Z,102006.66
2019-01-04T05:22:10.739Z,102002.72
2019-01-04T05:24:38.357Z,101993.50
2019-01-04T05:27:24.858Z,101992.59
2019-01-04T05:29:52.548Z,101992.59
2019-01-04T05:32:39.061Z,101996.13
2019-01-04T05:35:06.736Z,101996.13
2019-01-04T05:37:34.408Z,101987.33
2019-01-04T05:40:20.843Z,101987.33
2019-01-04T05:42:48.571Z,101983.80
2019-01-04T05:45:16.232Z,101983.80
2019-01-04T05:48:03.147Z,101987.27
2019-01-04T05:50:30.854Z,101987.27
2019-01-04T05:53:17.360Z,101973.25
2019-01-04T05:56:03.804Z,101974.52
2019-01-04T05:58:31.811Z,101965.72
2019-01-04T06:01:00.040Z,101967.48
2019-01-04T06:03:28.201Z,101967.48
2019-01-04T06:06:15.862Z,101955.19
2019-01-04T06:08:43.556Z,101960.92
2019-01-04T06:11:11.562Z,101959.14
2019-01-04T06:13:39.272Z,101964.41
2019-01-04T06:16:06.886Z,101966.12
2019-01-04T06:18:53.390Z,101961.73
2019-01-04T06:24:12.674Z,101960.84
2019-01-04T06:26:40.752Z,101962.98
2019-01-04T06:29:08.467Z,101959.91
2019-01-04T06:31:54.911Z,101959.91
2019-01-04T06:34:22.610Z,101950.68
2019-01-04T06:36:50.277Z,101954.16
2019-01-04T06:39:36.817Z,101950.19
2019-01-04T06:42:04.480Z,101947.56
2019-01-04T06:44:32.262Z,101953.67
2019-01-04T06:47:19.018Z,101958.51
2019-01-04T06:49:46.644Z,101960.24
2019-01-04T06:52:14.292Z,101960.24
2019-01-04T06:55:00.802Z,101960.66
2019-01-04T06:57:47.260Z,101962.80
2019-01-04T07:00:46.250Z,101962.80
2019-01-04T07:05:51.706Z,101967.20
2019-01-04T07:08:19.335Z,101973.73
2019-01-04T07:10:47.101Z,101978.08
2019-01-04T07:13:34.059Z,101970.59
2019-01-04T07:16:01.674Z,101955.19
2019-01-04T07:18:48.203Z,101955.19
2019-01-04T07:21:15.896Z,101963.99
2019-01-04T07:24:02.444Z,101967.51
2019-01-04T07:27:01.230Z,101956.09
2019-01-04T07:29:18.510Z,101956.09
2019-01-04T07:32:05.043Z,101968.34
2019-01-04T07:34:51.476Z,101973.14
2019-01-04T07:37:39.019Z,101977.05
2019-01-04T07:40:25.482Z,101983.56
2019-01-04T07:42:53.195Z,101983.56
2019-01-04T07:45:21.119Z,101972.98
2019-01-04T07:47:48.803Z,101973.80
2019-01-04T07:50:16.529Z,101973.80
2019-01-04T07:53:02.977Z,101974.62
2019-01-04T07:55:30.752Z,101969.36
2019-01-04T07:57:58.502Z,101962.30
2019-01-04T08:00:44.940Z,101962.00
2019-01-04T08:03:12.682Z,101965.54
2019-01-04T08:05:40.716Z,101965.54
2019-01-04T08:08:27.252Z,101966.46
2019-01-04T08:10:54.943Z,101973.93
2019-01-04T08:13:22.573Z,101965.13
2019-01-04T08:16:09.071Z,101965.13
2019-01-04T08:18:36.802Z,101973.91
2019-01-04T08:21:07.567Z,101957.22
2019-01-04T08:23:54.049Z,101960.33
2019-01-04T08:26:23.080Z,101963.38
2019-01-04T08:28:50.768Z,101963.38
2019-01-04T08:31:18.405Z,101968.23
2019-01-04T08:34:04.897Z,101965.13
2019-01-04T08:36:32.589Z,101964.27
2019-01-04T08:39:19.103Z,101952.86
2019-01-04T08:41:46.693Z,101950.66
2019-01-04T08:44:14.394Z,101944.52
2019-01-04T08:49:47.315Z,101944.44
2019-01-04T08:52:33.783Z,101946.16
2019-01-04T08:55:03.135Z,101946.16
2019-01-04T08:57:49.641Z,101959.25
2019-01-04T09:03:08.342Z,101942.52
2019-01-04T09:05:35.950Z,101938.96
2019-01-04T09:08:06.136Z,101941.58
2019-01-04T09:10:52.675Z,101940.69
2019-01-04T09:13:20.362Z,101944.21
2019-01-04T09:16:00.354Z,101944.21
2019-01-04T09:18:17.689Z,101940.18
2019-01-04T09:20:45.384Z,101940.18
2019-01-04T09:23:13.058Z,101940.98
2019-01-04T09:25:43.855Z,101932.10
2019-01-04T09:28:17.995Z,101928.08
2019-01-04T09:30:42.754Z,101925.86
2019-01-04T09:33:29.254Z,101926.69
2019-01-04T09:35:57.012Z,101919.16
2019-01-04T09:38:45.062Z,101914.28
2019-01-04T09:41:12.775Z,101914.28
2019-01-04T09:43:42.630Z,101912.00
2019-01-04T09:46:29.122Z,101910.66
2019-01-04T09:48:56.742Z,101899.62
2019-01-04T09:51:43.237Z,101899.62
2019-01-04T09:54:10.886Z,101904.44
2019-01-04T09:56:38.631Z,101901.72
2019-01-04T09:59:25.141Z,101904.66
2019-01-04T10:01:55.098Z,101904.66
2019-01-04T10:04:22.793Z,101900.87
2019-01-04T10:07:09.303Z,101900.87
2019-01-04T10:09:37.002Z,101895.41
2019-01-04T10:12:23.460Z,101889.12
2019-01-04T10:15:09.979Z,101890.82
2019-01-04T10:17:37.931Z,101880.53
2019-01-04T10:20:08.095Z,101867.64
2019-01-04T10:22:35.813Z,101858.17
2019-01-04T10:25:22.263Z,101858.17
2019-01-04T10:28:04.456Z,101847.40
2019-01-04T10:30:21.920Z,101847.40
2019-01-04T10:33:06.700Z,101847.61
2019-01-04T10:35:40.033Z,101847.61
2019-01-04T10:38:07.717Z,101855.15
2019-01-04T10:40:35.423Z,101842.45
2019-01-04T10:46:08.700Z,101846.55
2019-01-04T10:48:55.187Z,101838.52
2019-01-04T10:51:35.174Z,101834.02
2019-01-04T10:54:24.579Z,101834.02
2019-01-04T10:57:00.172Z,101826.89
2019-01-04T10:59:46.655Z,101818.59
2019-01-04T11:02:14.292Z,101820.45
2019-01-04T11:05:00.809Z,101807.47
2019-01-04T11:07:28.437Z,101807.47
2019-01-04T11:12:31.083Z,101809.98
2019-01-04T11:14:58.755Z,101798.09
2019-01-04T11:17:29.828Z,101796.41
2019-01-04T11:20:16.369Z,101796.41
2019-01-04T11:23:02.818Z,101785.09
2019-01-04T11:25:30.765Z,101785.09
2019-01-04T11:27:59.504Z,101775.92
2019-01-04T11:30:46.220Z,101773.34
2019-01-04T11:33:13.958Z,101783.09
2019-01-04T11:35:41.590Z,101783.09
2019-01-04T11:41:02.318Z,101782.68
2019-01-04T11:43:31.356Z,101776.49
2019-01-04T11:48:45.661Z,101775.39
2019-01-04T11:51:13.353Z,101781.86
2019-01-04T11:56:34.712Z,101763.92
2019-01-04T11:59:02.456Z,101762.06
2019-01-04T12:02:01.267Z,101762.06
2019-01-04T12:12:27.600Z,101777.39
2019-01-04T12:17:31.971Z,101772.13
2019-01-04T12:20:18.457Z,101772.13
2019-01-04T12:22:46.139Z,101757.02
2019-01-04T12:25:32.667Z,101757.02
2019-01-04T12:28:00.274Z,101741.84
2019-01-04T12:30:46.804Z,101746.72
2019-01-04T12:33:14.771Z,101746.72
2019-01-04T12:36:01.281Z,101742.10
2019-01-04T12:38:29.014Z,101742.10
2019-01-04T12:40:56.803Z,101725.17
2019-01-04T12:43:47.807Z,101725.17
2019-01-04T12:46:14.428Z,101718.64
2019-01-04T12:49:03.561Z,101716.92
2019-01-04T12:51:31.596Z,101711.11
2019-01-04T12:53:59.280Z,101711.11
2019-01-04T12:56:45.753Z,101714.56
2019-01-04T13:02:06.722Z,101709.26
2019-01-04T13:04:34.455Z,101711.92
2019-01-04T13:07:02.336Z,101711.92
2019-01-04T13:09:29.975Z,101711.48
2019-01-04T13:11:59.314Z,101695.66
2019-01-04T13:14:27.351Z,101693.97
2019-01-04T13:19:27.452Z,101693.97
2019-01-04T13:25:00.389Z,101675.59
2019-01-04T13:27:29.321Z,101674.69
2019-01-04T13:30:09.137Z,101674.69
2019-01-04T13:32:26.395Z,101671.64
2019-01-04T13:35:12.908Z,101671.64
2019-01-04T13:37:40.633Z,101674.81
2019-01-04T13:40:08.705Z,101677.05
2019-01-04T13:42:36.384Z,101677.98
2019-01-04T13:47:45.450Z,101675.41
2019-01-04T13:50:16.190Z,101683.39
2019-01-04T13:55:49.048Z,101683.83
2019-01-04T13:58:16.723Z,101683.83
2019-01-04T14:00:57.029Z,101682.91
2019-01-04T14:03:35.220Z,101682.91
2019-01-04T14:06:21.754Z,101670.58
2019-01-04T14:08:49.386Z,101670.58
2019-01-04T14:11:17.335Z,101641.78
2019-01-04T14:13:45.001Z,101641.78
2019-01-04T14:16:12.746Z,101637.80
2019-01-04T14:18:40.955Z,101635.50
2019-01-04T14:21:11.021Z,101635.50
2019-01-04T14:23:38.688Z,101630.16
2019-01-04T14:26:25.172Z,101624.89
2019-01-04T14:28:52.828Z,101624.89
2019-01-04T14:31:20.840Z,101626.67
2019-01-04T14:33:48.569Z,101619.81
2019-01-04T14:36:18.897Z,101610.61
2019-01-04T14:39:05.414Z,101608.52
2019-01-04T14:44:28.275Z,101626.29
2019-01-04T14:49:42.536Z,101639.95
2019-01-04T14:52:10.232Z,101633.48
2019-01-04T14:54:39.945Z,101646.76
2019-01-04T14:57:28.955Z,101645.47
2019-01-04T14:59:56.659Z,101662.30
2019-01-04T15:02:24.781Z,101651.31
2019-01-04T15:04:52.481Z,101651.31
2019-01-04T15:07:20.135Z,101650.99
2019-01-04T15:09:48.239Z,101650.11
2019-01-04T15:12:34.755Z,101661.56
2019-01-04T15:15:21.243Z,101648.39
2019-01-04T15:17:48.947Z,101648.39
2019-01-04T15:20:35.499Z,101637.03
2019-01-04T15:23:22.026Z,101637.13
2019-01-04T15:26:08.503Z,101622.69
2019-01-04T15:28:36.257Z,101622.69
2019-01-04T15:31:22.696Z,101619.30
2019-01-04T15:33:50.449Z,101619.30
2019-01-04T15:36:37.186Z,101612.77
2019-01-04T15:39:05.234Z,101616.75
2019-01-04T15:41:33.396Z,101624.25
2019-01-04T15:44:01.519Z,101633.50
2019-01-04T15:46:41.258Z,101633.50
2019-01-04T15:48:58.513Z,101629.05
2019-01-04T15:51:48.542Z,101626.41
2019-01-04T15:54:30.087Z,101616.75
2019-01-04T15:56:45.713Z,101616.75
2019-01-04T15:59:13.449Z,101610.17
2019-01-04T16:04:31.119Z,101603.58
2019-01-04T16:07:01.323Z,101611.05
2019-01-04T16:12:04.221Z,101610.98
2019-01-04T16:14:31.872Z,101605.71
2019-01-04T16:16:59.554Z,101605.71
2019-01-04T16:19:46.102Z,101605.71
2019-01-04T16:22:13.810Z,101605.71
2019-01-04T16:25:00.343Z,101601.29
2019-01-04T16:30:14.655Z,101600.31
2019-01-04T16:33:04.009Z,101600.31
2019-01-04T16:35:50.532Z,101595.48
2019-01-04T16:38:18.196Z,101595.48
2019-01-04T16:41:05.168Z,101585.80
2019-01-04T16:43:32.845Z,101571.67
2019-01-04T16:46:19.383Z,101564.20
2019-01-04T16:48:47.052Z,101567.72
2019-01-04T16:51:33.567Z,101563.73
2019-01-04T16:54:01.210Z,101563.73
2019-01-04T16:56:28.903Z,101560.19
2019-01-04T16:59:15.382Z,101560.19
2019-01-04T17:01:43.193Z,101551.37
2019-01-04T17:04:11.001Z,101550.05
2019-01-04T17:06:57.495Z,101550.05
2019-01-04T17:09:44.046Z,101545.19
2019-01-04T17:12:30.552Z,101541.64
2019-01-04T17:14:58.234Z,101543.83
2019-01-04T17:17:44.679Z,101545.59
2019-01-04T17:20:12.465Z,101545.59
2019-01-04T17:22:40.200Z,101555.63
2019-01-04T17:25:08.935Z,101555.63
2019-01-04T17:27:36.693Z,101553.88
2019-01-04T17:30:23.600Z,101545.53
2019-01-04T17:32:51.353Z,101545.53
2019-01-04T17:35:19.025Z,101543.70
2019-01-04T17:38:05.495Z,101555.97
2019-01-04T17:40:33.325Z,101555.97
2019-01-04T17:43:01.345Z,101544.92
2019-01-04T17:45:47.878Z,101543.16
2019-01-04T17:48:15.595Z,101547.52
2019-01-04T17:50:43.308Z,101547.52
2019-01-04T17:53:11.713Z,101543.53
2019-01-04T17:55:39.367Z,101546.11
2019-01-04T18:00:40.545Z,101546.48
2019-01-04T18:03:08.176Z,101542.52
2019-01-04T18:05:35.899Z,101550.40
2019-01-04T18:08:22.360Z,101551.72
2019-01-04T18:10:50.060Z,101547.25
2019-01-04T18:13:17.892Z,101547.25
2019-01-04T18:15:47.610Z,101550.77
2019-01-04T18:18:15.344Z,101538.40
2019-01-04T18:21:01.886Z,101539.69
2019-01-04T18:23:29.831Z,101547.12
2019-01-04T18:25:57.932Z,101547.12
2019-01-04T18:31:14.968Z,101544.86
2019-01-04T18:33:45.118Z,101553.64
2019-01-04T18:36:12.872Z,101561.05
2019-01-04T18:38:40.658Z,101559.22
2019-01-04T18:41:11.726Z,101568.86
2019-01-04T18:43:39.465Z,101560.91
2019-01-04T18:46:09.195Z,101560.91
2019-01-04T18:48:37.239Z,101566.59
2019-01-04T18:51:04.952Z,101562.20
2019-01-04T18:53:32.681Z,101562.20
2019-01-04T18:56:00.752Z,101558.64
2019-01-04T18:58:28.534Z,101555.13
2019-01-04T19:00:56.216Z,101562.50
2019-01-04T19:03:24.183Z,101562.50
2019-01-04T19:05:51.892Z,101553.34
2019-01-04T19:08:19.707Z,101551.11
2019-01-04T19:10:47.782Z,101558.55
2019-01-04T19:13:15.567Z,101555.91
2019-01-04T19:15:46.063Z,101555.91
2019-01-04T19:18:15.214Z,101553.67
2019-01-04T19:20:48.131Z,101553.67
2019-01-04T19:23:18.499Z,101553.23
2019-01-04T19:25:46.615Z,101553.23
2019-01-04T19:28:14.356Z,101552.42
2019-01-04T19:30:42.098Z,101547.55
2019-01-04T19:33:10.215Z,101547.55
2019-01-04T19:35:37.907Z,101549.38
2019-01-04T19:38:05.562Z,101549.38
2019-01-04T19:40:33.791Z,101551.58
2019-01-04T19:43:01.450Z,101546.38
2019-01-04T19:45:30.102Z,101549.42
2019-01-04T19:48:02.551Z,101543.73
2019-01-04T19:50:30.277Z,101547.73
2019-01-04T19:52:57.913Z,101547.73
2019-01-04T19:55:26.020Z,101545.53
2019-01-04T19:57:53.710Z,101542.48
2019-01-04T20:00:22.646Z,101549.14
2019-01-04T20:02:57.951Z,101549.14
2019-01-04T20:05:32.052Z,101544.82
2019-01-04T20:08:20.179Z,101540.87
2019-01-04T20:11:15.754Z,101540.87
2019-01-04T20:13:52.153Z,101542.19
2019-01-04T20:16:42.303Z,101543.13
2019-01-04T20:19:30.481Z,101544.89
2019-01-04T20:22:19.850Z,101541.44
2019-01-04T20:25:11.466Z,101543.67
2019-01-04T20:27:59.439Z,101543.67
2019-01-04T20:30:40.844Z,101539.75
2019-01-04T20:33:33.182Z,101540.63
2019-01-04T20:36:20.203Z,101538.00
2019-01-04T20:39:05.226Z,101544.11
2019-01-04T20:42:07.068Z,101544.11
2019-01-04T20:44:51.940Z,101543.67
2019-01-04T20:47:41.726Z,101541.07
2019-01-04T20:50:31.004Z,101541.07
2019-01-04T20:53:30.107Z,101532.25
2019-01-04T20:56:22.870Z,101528.77
2019-01-04T20:59:09.395Z,101531.41
2019-01-04T21:01:55.972Z,101533.16
2019-01-04T21:04:42.682Z,101533.16
2019-01-04T21:07:29.191Z,101524.84
2019-01-04T21:10:15.686Z,101524.84
2019-01-04T21:13:02.201Z,101522.20
2019-01-04T21:15:48.752Z,101527.48
2019-01-04T21:18:35.258Z,101527.48
2019-01-04T21:21:21.803Z,101513.86
2019-01-04T21:24:08.319Z,101509.50
2019-01-04T21:26:55.206Z,101512.54
2019-01-04T21:29:41.651Z,101512.54
2019-01-04T21:32:28.164Z,101508.99
2019-01-04T21:35:14.640Z,101501.92
2019-01-04T21:38:01.157Z,101492.26
2019-01-04T21:40:49.831Z,101495.77
2019-01-04T21:43:48.585Z,101484.45
2019-01-04T21:46:24.461Z,101484.45
2019-01-04T21:49:10.962Z,101495.47
2019-01-04T21:51:57.442Z,101487.20
2019-01-04T21:54:44.547Z,101487.20
2019-01-04T21:57:34.113Z,101499.16
2019-01-04T22:00:20.683Z,101483.05
2019-01-04T22:03:07.150Z,101483.05
2019-01-04T22:05:53.740Z,101485.75
2019-01-04T22:08:40.656Z,101485.75
2019-01-04T22:11:29.270Z,101479.19
2019-01-04T22:14:15.784Z,101479.19
2019-01-04T22:17:02.245Z,101467.84
2019-01-04T22:19:48.784Z,101468.31
2019-01-04T22:22:54.656Z,101466.99
2019-01-04T22:25:31.037Z,101468.31
2019-01-04T22:28:17.540Z,101469.56
2019-01-04T22:34:06.411Z,101463.84
2019-01-04T22:37:07.145Z,101461.21
2019-01-04T22:39:41.277Z,101461.21
2019-01-04T22:42:27.777Z,101467.30
2019-01-04T22:45:14.322Z,101467.30
2019-01-04T22:48:00.865Z,101460.27
2019-01-04T22:50:47.358Z,101460.27
2019-01-04T22:53:33.794Z,101459.75
2019-01-04T22:56:32.588Z,101450.94
2019-01-04T22:59:11.441Z,101450.94
2019-01-04T23:01:58.941Z,101454.31
2019-01-04T23:04:45.437Z,101454.31
2019-01-04T23:07:44.528Z,101451.13
2019-01-04T23:10:32.644Z,101440.48
2019-01-04T23:13:08.205Z,101440.48
2019-01-04T23:15:54.724Z,101434.25
2019-01-04T23:18:41.241Z,101429.86
2019-01-04T23:21:27.743Z,101434.58
2019-01-04T23:24:14.530Z,101428.39
2019-01-04T23:27:01.016Z,101413.89
2019-01-04T23:29:47.523Z,101415.61
2019-01-04T23:32:34.040Z,101422.09
2019-01-04T23:35:20.556Z,101422.09
2019-01-04T23:38:08.840Z,101405.77
2019-01-04T23:40:55.266Z,101404.77
2019-01-04T23:43:42.054Z,101404.77
2019-01-04T23:46:28.967Z,101399.38
2019-01-04T23:49:15.569Z,101406.37
2019-01-04T23:55:07.319Z,101397.11
2019-01-04T23:57:42.152Z,101393.11
